^^
Meteo Knjazevac Station Historical Data
Daily Summary for February 14, 2021 Units:  Both    English   Metric
Daily Weekly Monthly Yearly Custom
  High: Low: Average:
Temperature: 38.5 °F /  3.6 °C 33.1 °F /  0.6 °C 35.3 °F /  1.8 °C
Dew Point: 36.1 °F /  2.3 °C 32.6 °F /  0.3 °C 34 °F /  1.1 °C
Humidity: 99% 89% 95%
Wind Speed: 8mph /  12.9km/h - 2.5mph /  4km/h
Wind Gust: 12mph /  19.3km/h - -
Wind- - SW
Pressure: 30.25 in /  1024.3 hPa 30.17 in /  1021.6 hPa -
Precipitation: 0.00 in /  0 mm    
Historical Graphs
 
 
Tabular Data for February 14, 2021
Time Temperature Dew Point Pressure Wind Wind Speed Wind Gust Humidity Rainfall Rate (Hourly) solar Conditions
00:00 33.1 °F /  0.6 °C 32.9 °F /  0.5 °C 30.18in /  1021.9hPa WSW 1mph /  1.6km/h 3mph /  4.8km/h 99% 0.00in /  0mm 0 W/m2
00:10 33.1 °F /  0.6 °C 32.8 °F /  0.4 °C 30.18in /  1021.9hPa Calm   4mph /  6.4km/h 99% 0.00in /  0mm 0 W/m2
00:20 33.3 °F /  0.7 °C 33 °F /  0.6 °C 30.18in /  1021.9hPa SSW 2mph /  3.2km/h 3mph /  4.8km/h 99% 0.00in /  0mm 0 W/m2
00:30 33.3 °F /  0.7 °C 33 °F /  0.6 °C 30.18in /  1021.9hPa Calm   2mph /  3.2km/h 99% 0.00in /  0mm 0 W/m2
00:40 33.3 °F /  0.7 °C 33 °F /  0.6 °C 30.18in /  1021.9hPa North 1mph /  1.6km/h 3mph /  4.8km/h 99% 0.00in /  0mm 0 W/m2
00:50 33.3 °F /  0.7 °C 33 °F /  0.6 °C 30.17in /  1021.6hPa NW 1mph /  1.6km/h 2mph /  3.2km/h 99% 0.00in /  0mm 0 W/m2
01:00 33.3 °F /  0.7 °C 33 °F /  0.6 °C 30.17in /  1021.6hPa South 1mph /  1.6km/h 5mph /  8km/h 99% 0.00in /  0mm 0 W/m2
01:10 33.4 °F /  0.8 °C 33.2 °F /  0.7 °C 30.17in /  1021.6hPa ESE 3mph /  4.8km/h 7mph /  11.3km/h 99% 0.00in /  0mm 0 W/m2
01:20 33.4 °F /  0.8 °C 33.2 °F /  0.7 °C 30.18in /  1021.9hPa SSE 1mph /  1.6km/h 5mph /  8km/h 99% 0.00in /  0mm 0 W/m2
01:30 33.4 °F /  0.8 °C 33.2 °F /  0.7 °C 30.18in /  1021.9hPa SSW 1mph /  1.6km/h 3mph /  4.8km/h 99% 0.00in /  0mm 0 W/m2
01:40 33.4 °F /  0.8 °C 33.2 °F /  0.7 °C 30.18in /  1021.9hPa SSE 2mph /  3.2km/h 5mph /  8km/h 99% 0.00in /  0mm 0 W/m2
01:50 33.6 °F /  0.9 °C 33.4 °F /  0.8 °C 30.19in /  1022.2hPa NE 1mph /  1.6km/h 4mph /  6.4km/h 99% 0.00in /  0mm 0 W/m2
02:00 33.6 °F /  0.9 °C 33.4 °F /  0.8 °C 30.18in /  1021.9hPa Calm   3mph /  4.8km/h 99% 0.00in /  0mm 0 W/m2
02:10 33.6 °F /  0.9 °C 33.4 °F /  0.8 °C 30.18in /  1021.9hPa Calm   3mph /  4.8km/h 99% 0.00in /  0mm 0 W/m2
02:20 33.6 °F /  0.9 °C 33.4 °F /  0.8 °C 30.18in /  1021.9hPa South 1mph /  1.6km/h 4mph /  6.4km/h 99% 0.00in /  0mm 0 W/m2
02:30 33.6 °F /  0.9 °C 33.1 °F /  0.6 °C 30.18in /  1021.9hPa Calm   2mph /  3.2km/h 98% 0.00in /  0mm 0 W/m2
02:40 33.6 °F /  0.9 °C 33.1 °F /  0.6 °C 30.18in /  1021.9hPa Calm   2mph /  3.2km/h 98% 0.00in /  0mm 0 W/m2
02:50 33.6 °F /  0.9 °C 33.1 °F /  0.6 °C 30.18in /  1021.9hPa ENE 1mph /  1.6km/h 2mph /  3.2km/h 98% 0.00in /  0mm 0 W/m2
03:00 33.8 °F /  1 °C 33.3 °F /  0.7 °C 30.18in /  1021.9hPa Calm   2mph /  3.2km/h 98% 0.00in /  0mm 0 W/m2
03:10 33.8 °F /  1 °C 33.3 °F /  0.7 °C 30.19in /  1022.2hPa West 2mph /  3.2km/h 3mph /  4.8km/h 98% 0.00in /  0mm 0 W/m2
03:20 33.8 °F /  1 °C 33.3 °F /  0.7 °C 30.18in /  1021.9hPa WSW 2mph /  3.2km/h 5mph /  8km/h 98% 0.00in /  0mm 0 W/m2
03:30 33.8 °F /  1 °C 33.3 °F /  0.7 °C 30.19in /  1022.2hPa WSW 3mph /  4.8km/h 5mph /  8km/h 98% 0.00in /  0mm 0 W/m2
03:40 34 °F /  1.1 °C 33.5 °F /  0.8 °C 30.19in /  1022.2hPa SSW 2mph /  3.2km/h 5mph /  8km/h 98% 0.00in /  0mm 0 W/m2
03:50 34 °F /  1.1 °C 33.5 °F /  0.8 °C 30.19in /  1022.2hPa SW 1mph /  1.6km/h 3mph /  4.8km/h 98% 0.00in /  0mm 0 W/m2
04:00 34 °F /  1.1 °C 33.5 °F /  0.8 °C 30.19in /  1022.2hPa South 1mph /  1.6km/h 4mph /  6.4km/h 98% 0.00in /  0mm 0 W/m2
04:10 34 °F /  1.1 °C 33.5 °F /  0.8 °C 30.19in /  1022.2hPa SE 2mph /  3.2km/h 4mph /  6.4km/h 98% 0.00in /  0mm 0 W/m2
04:20 33.8 °F /  1 °C 33.5 °F /  0.8 °C 30.19in /  1022.2hPa SSW 1mph /  1.6km/h 3mph /  4.8km/h 99% 0.00in /  0mm 0 W/m2
04:30 33.8 °F /  1 °C 33.5 °F /  0.8 °C 30.19in /  1022.2hPa Calm   2mph /  3.2km/h 99% 0.00in /  0mm 0 W/m2
04:40 33.6 °F /  0.9 °C 33.4 °F /  0.8 °C 30.19in /  1022.2hPa West 2mph /  3.2km/h 3mph /  4.8km/h 99% 0.00in /  0mm 0 W/m2
04:50 33.6 °F /  0.9 °C 33.4 °F /  0.8 °C 30.19in /  1022.2hPa WSW 1mph /  1.6km/h 3mph /  4.8km/h 99% 0.00in /  0mm 0 W/m2
05:00 33.6 °F /  0.9 °C 33.4 °F /  0.8 °C 30.19in /  1022.2hPa Calm   3mph /  4.8km/h 99% 0.00in /  0mm 0 W/m2
05:10 33.6 °F /  0.9 °C 33.4 °F /  0.8 °C 30.19in /  1022.2hPa Calm   2mph /  3.2km/h 99% 0.00in /  0mm 0 W/m2
05:20 33.6 °F /  0.9 °C 33.4 °F /  0.8 °C 30.19in /  1022.2hPa Calm   2mph /  3.2km/h 99% 0.00in /  0mm 0 W/m2
05:30 33.6 °F /  0.9 °C 33.4 °F /  0.8 °C 30.19in /  1022.2hPa WSW 1mph /  1.6km/h 2mph /  3.2km/h 99% 0.00in /  0mm 0 W/m2
05:40 33.6 °F /  0.9 °C 33.4 °F /  0.8 °C 30.19in /  1022.2hPa SSE 1mph /  1.6km/h 5mph /  8km/h 99% 0.00in /  0mm 0 W/m2
05:50 33.6 °F /  0.9 °C 33.3 °F /  0.7 °C 30.19in /  1022.2hPa SE 1mph /  1.6km/h 5mph /  8km/h 99% 0.00in /  0mm 0 W/m2
06:00 33.6 °F /  0.9 °C 33.4 °F /  0.8 °C 30.19in /  1022.2hPa NE 2mph /  3.2km/h 3mph /  4.8km/h 99% 0.00in /  0mm 0 W/m2
06:10 33.6 °F /  0.9 °C 33.4 °F /  0.8 °C 30.19in /  1022.2hPa East 1mph /  1.6km/h 4mph /  6.4km/h 99% 0.00in /  0mm 0 W/m2
06:20 33.6 °F /  0.9 °C 33.4 °F /  0.8 °C 30.19in /  1022.2hPa NW 1mph /  1.6km/h 4mph /  6.4km/h 99% 0.00in /  0mm 0 W/m2
06:30 33.6 °F /  0.9 °C 33.4 °F /  0.8 °C 30.19in /  1022.2hPa East 1mph /  1.6km/h 5mph /  8km/h 99% 0.00in /  0mm 0 W/m2
06:40 33.7 °F /  0.9 °C 33.5 °F /  0.8 °C 30.20in /  1022.6hPa Calm   2mph /  3.2km/h 99% 0.00in /  0mm 0 W/m2
06:50 33.8 °F /  1 °C 33.5 °F /  0.8 °C 30.20in /  1022.6hPa Calm   3mph /  4.8km/h 99% 0.00in /  0mm 0 W/m2
07:00 33.8 °F /  1 °C 33.5 °F /  0.8 °C 30.20in /  1022.6hPa Calm   2mph /  3.2km/h 99% 0.00in /  0mm 1 W/m2
07:10 33.8 °F /  1 °C 33.5 °F /  0.8 °C 30.20in /  1022.6hPa Calm   2mph /  3.2km/h 99% 0.00in /  0mm 2 W/m2
07:20 33.8 °F /  1 °C 33.5 °F /  0.8 °C 30.20in /  1022.6hPa North 1mph /  1.6km/h 2mph /  3.2km/h 99% 0.00in /  0mm 4 W/m2
07:30 33.8 °F /  1 °C 33.5 °F /  0.8 °C 30.20in /  1022.6hPa Calm   1mph /  1.6km/h 99% 0.00in /  0mm 7 W/m2
07:40 34 °F /  1.1 °C 33.7 °F /  0.9 °C 30.21in /  1022.9hPa ESE 1mph /  1.6km/h 2mph /  3.2km/h 99% 0.00in /  0mm 9 W/m2
07:50 34 °F /  1.1 °C 33.7 °F /  0.9 °C 30.21in /  1022.9hPa ESE 2mph /  3.2km/h 3mph /  4.8km/h 99% 0.00in /  0mm 14 W/m2
08:00 34 °F /  1.1 °C 33.7 °F /  0.9 °C 30.21in /  1022.9hPa SE 1mph /  1.6km/h 2mph /  3.2km/h 99% 0.00in /  0mm 20 W/m2
08:10 34.2 °F /  1.2 °C 33.9 °F /  1.1 °C 30.21in /  1022.9hPa SE 1mph /  1.6km/h 2mph /  3.2km/h 99% 0.00in /  0mm 28 W/m2
08:20 34.2 °F /  1.2 °C 33.9 °F /  1.1 °C 30.21in /  1022.9hPa Calm   2mph /  3.2km/h 99% 0.00in /  0mm 38 W/m2
08:30 34.3 °F /  1.3 °C 34.1 °F /  1.2 °C 30.21in /  1022.9hPa Calm   2mph /  3.2km/h 99% 0.00in /  0mm 48 W/m2
08:40 34.5 °F /  1.4 °C 34.3 °F /  1.3 °C 30.21in /  1022.9hPa Calm     99% 0.00in /  0mm 64 W/m2
08:50 34.7 °F /  1.5 °C 34.4 °F /  1.3 °C 30.21in /  1022.9hPa NE 1mph /  1.6km/h 2mph /  3.2km/h 99% 0.00in /  0mm 94 W/m2
09:00 35.1 °F /  1.7 °C 34.6 °F /  1.4 °C 30.22in /  1023.2hPa NE 1mph /  1.6km/h 3mph /  4.8km/h 98% 0.00in /  0mm 98 W/m2
09:10 35.4 °F /  1.9 °C 34.9 °F /  1.6 °C 30.22in /  1023.2hPa SSW 1mph /  1.6km/h 3mph /  4.8km/h 98% 0.00in /  0mm 134 W/m2
09:20 35.8 °F /  2.1 °C 35.3 °F /  1.8 °C 30.22in /  1023.2hPa WSW 1mph /  1.6km/h 4mph /  6.4km/h 98% 0.00in /  0mm 125 W/m2
09:30 36.1 °F /  2.3 °C 35.1 °F /  1.7 °C 30.22in /  1023.2hPa South 2mph /  3.2km/h 5mph /  8km/h 96% 0.00in /  0mm 116 W/m2
09:40 36.3 °F /  2.4 °C 35.3 °F /  1.8 °C 30.22in /  1023.2hPa South 1mph /  1.6km/h 6mph /  9.7km/h 96% 0.00in /  0mm 109 W/m2
09:50 36.5 °F /  2.5 °C 35.2 °F /  1.8 °C 30.22in /  1023.2hPa SW 2mph /  3.2km/h 6mph /  9.7km/h 95% 0.00in /  0mm 65 W/m2
10:00 36.7 °F /  2.6 °C 35.1 °F /  1.7 °C 30.22in /  1023.2hPa WSW 2mph /  3.2km/h 6mph /  9.7km/h 94% 0.00in /  0mm 52 W/m2
10:10 36.7 °F /  2.6 °C 35.1 °F /  1.7 °C 30.22in /  1023.2hPa WSW 2mph /  3.2km/h 6mph /  9.7km/h 94% 0.00in /  0mm 53 W/m2
10:20 36.7 °F /  2.6 °C 35.1 °F /  1.7 °C 30.22in /  1023.2hPa WSW 3mph /  4.8km/h 7mph /  11.3km/h 94% 0.00in /  0mm 62 W/m2
10:30 36.9 °F /  2.7 °C 35.3 °F /  1.8 °C 30.22in /  1023.2hPa WSW 3mph /  4.8km/h 7mph /  11.3km/h 94% 0.00in /  0mm 60 W/m2
10:40 36.9 °F /  2.7 °C 35.3 °F /  1.8 °C 30.21in /  1022.9hPa WSW 3mph /  4.8km/h 7mph /  11.3km/h 94% 0.00in /  0mm 70 W/m2
10:50 36.9 °F /  2.7 °C 35.3 °F /  1.8 °C 30.21in /  1022.9hPa WSW 5mph /  8km/h 6mph /  9.7km/h 94% 0.00in /  0mm 69 W/m2
11:00 36.9 °F /  2.7 °C 35.4 °F /  1.9 °C 30.21in /  1022.9hPa SW 3mph /  4.8km/h 7mph /  11.3km/h 94% 0.00in /  0mm 77 W/m2
11:10 37 °F /  2.8 °C 35.2 °F /  1.8 °C 30.20in /  1022.6hPa WSW 5mph /  8km/h 6mph /  9.7km/h 93% 0.00in /  0mm 99 W/m2
11:20 37.2 °F /  2.9 °C 35.7 °F /  2.1 °C 30.20in /  1022.6hPa SW 3mph /  4.8km/h 6mph /  9.7km/h 94% 0.00in /  0mm 106 W/m2
11:30 37.4 °F /  3 °C 35.6 °F /  2 °C 30.20in /  1022.6hPa SW 2mph /  3.2km/h 5mph /  8km/h 93% 0.00in /  0mm 156 W/m2
11:40 37.8 °F /  3.2 °C 35.9 °F /  2.2 °C 30.20in /  1022.6hPa SW 5mph /  8km/h 7mph /  11.3km/h 93% 0.00in /  0mm 181 W/m2
11:50 38.1 °F /  3.4 °C 35.7 °F /  2.1 °C 30.20in /  1022.6hPa Calm   5mph /  8km/h 91% 0.00in /  0mm 145 W/m2
12:00 38.3 °F /  3.5 °C 35.9 °F /  2.2 °C 30.20in /  1022.6hPa SW 3mph /  4.8km/h 5mph /  8km/h 91% 0.00in /  0mm 111 W/m2
12:10 38.5 °F /  3.6 °C 36.1 °F /  2.3 °C 30.19in /  1022.2hPa WSW 2mph /  3.2km/h 5mph /  8km/h 91% 0.00in /  0mm 76 W/m2
12:20 38.3 °F /  3.5 °C 35.6 °F /  2 °C 30.19in /  1022.2hPa SW 3mph /  4.8km/h 6mph /  9.7km/h 90% 0.00in /  0mm 76 W/m2
12:30 38.3 °F /  3.5 °C 35.6 °F /  2 °C 30.20in /  1022.6hPa WSW 2mph /  3.2km/h 5mph /  8km/h 90% 0.00in /  0mm 85 W/m2
12:40 38.5 °F /  3.6 °C 35.8 °F /  2.1 °C 30.19in /  1022.2hPa WSW 2mph /  3.2km/h 6mph /  9.7km/h 90% 0.00in /  0mm 120 W/m2
12:50 38.5 °F /  3.6 °C 35.8 °F /  2.1 °C 30.19in /  1022.2hPa WSW 3mph /  4.8km/h 7mph /  11.3km/h 90% 0.00in /  0mm 84 W/m2
13:00 38.5 °F /  3.6 °C 35.8 °F /  2.1 °C 30.19in /  1022.2hPa SW 3mph /  4.8km/h 7mph /  11.3km/h 90% 0.00in /  0mm 71 W/m2
13:10 38.5 °F /  3.6 °C 35.8 °F /  2.1 °C 30.19in /  1022.2hPa WSW 5mph /  8km/h 8mph /  12.9km/h 90% 0.00in /  0mm 93 W/m2
13:20 38.5 °F /  3.6 °C 35.5 °F /  1.9 °C 30.19in /  1022.2hPa WSW 5mph /  8km/h 10mph /  16.1km/h 89% 0.00in /  0mm 102 W/m2
13:30 38.3 °F /  3.5 °C 35.3 °F /  1.8 °C 30.19in /  1022.2hPa WSW 5mph /  8km/h 11mph /  17.7km/h 89% 0.00in /  0mm 104 W/m2
13:40 38.3 °F /  3.5 °C 35.3 °F /  1.8 °C 30.19in /  1022.2hPa West 6mph /  9.7km/h 10mph /  16.1km/h 89% 0.00in /  0mm 99 W/m2
13:50 38.2 °F /  3.4 °C 35.3 °F /  1.8 °C 30.19in /  1022.2hPa WSW 8mph /  12.9km/h 12mph /  19.3km/h 89% 0.00in /  0mm 71 W/m2
14:00 37.9 °F /  3.3 °C 35 °F /  1.7 °C 30.19in /  1022.2hPa WSW 8mph /  12.9km/h 12mph /  19.3km/h 89% 0.00in /  0mm 47 W/m2
14:10 37.8 °F /  3.2 °C 34.8 °F /  1.6 °C 30.19in /  1022.2hPa WSW 6mph /  9.7km/h 12mph /  19.3km/h 89% 0.00in /  0mm 54 W/m2
14:20 37.6 °F /  3.1 °C 34.6 °F /  1.4 °C 30.19in /  1022.2hPa WSW 6mph /  9.7km/h 9mph /  14.5km/h 89% 0.00in /  0mm 50 W/m2
14:30 37.6 °F /  3.1 °C 34.6 °F /  1.4 °C 30.19in /  1022.2hPa WSW 5mph /  8km/h 9mph /  14.5km/h 89% 0.00in /  0mm 41 W/m2
14:40 37.6 °F /  3.1 °C 34.6 °F /  1.4 °C 30.19in /  1022.2hPa WSW 5mph /  8km/h 8mph /  12.9km/h 89% 0.00in /  0mm 31 W/m2
14:50 37.4 °F /  3 °C 34.5 °F /  1.4 °C 30.20in /  1022.6hPa WSW 5mph /  8km/h 9mph /  14.5km/h 89% 0.00in /  0mm 29 W/m2
15:00 37.4 °F /  3 °C 34.5 °F /  1.4 °C 30.20in /  1022.6hPa WSW 5mph /  8km/h 10mph /  16.1km/h 89% 0.00in /  0mm 24 W/m2
15:10 37.3 °F /  2.9 °C 34.4 °F /  1.3 °C 30.20in /  1022.6hPa West 6mph /  9.7km/h 10mph /  16.1km/h 89% 0.00in /  0mm 19 W/m2
15:20 37.2 °F /  2.9 °C 34.3 °F /  1.3 °C 30.20in /  1022.6hPa West 6mph /  9.7km/h 10mph /  16.1km/h 89% 0.00in /  0mm 13 W/m2
15:30 37.2 °F /  2.9 °C 34.6 °F /  1.4 °C 30.20in /  1022.6hPa West 6mph /  9.7km/h 10mph /  16.1km/h 90% 0.00in /  0mm 9 W/m2
15:40 37.2 °F /  2.9 °C 34.6 °F /  1.4 °C 30.20in /  1022.6hPa WSW 3mph /  4.8km/h 7mph /  11.3km/h 90% 0.00in /  0mm 6 W/m2
15:50 37 °F /  2.8 °C 34.4 °F /  1.3 °C 30.20in /  1022.6hPa WSW 5mph /  8km/h 8mph /  12.9km/h 90% 0.00in /  0mm 3 W/m2
16:00 36.9 °F /  2.7 °C 34.2 °F /  1.2 °C 30.20in /  1022.6hPa WSW 3mph /  4.8km/h 8mph /  12.9km/h 90% 0.00in /  0mm 0 W/m2
16:10 36.9 °F /  2.7 °C 34.2 °F /  1.2 °C 30.20in /  1022.6hPa WSW 6mph /  9.7km/h 8mph /  12.9km/h 90% 0.00in /  0mm 0 W/m2
16:20 36.7 °F /  2.6 °C 34 °F /  1.1 °C 30.21in /  1022.9hPa WSW 5mph /  8km/h 8mph /  12.9km/h 90% 0.00in /  0mm 0 W/m2
16:30 36.5 °F /  2.5 °C 34.1 °F /  1.2 °C 30.21in /  1022.9hPa West 3mph /  4.8km/h 10mph /  16.1km/h 91% 0.00in /  0mm 0 W/m2
16:40 36.5 °F /  2.5 °C 34.1 °F /  1.2 °C 30.21in /  1022.9hPa WSW 3mph /  4.8km/h 7mph /  11.3km/h 91% 0.00in /  0mm 0 W/m2
16:50 36.5 °F /  2.5 °C 34.1 °F /  1.2 °C 30.21in /  1022.9hPa WSW 3mph /  4.8km/h 7mph /  11.3km/h 91% 0.00in /  0mm 0 W/m2
17:00 36.4 °F /  2.4 °C 34.6 °F /  1.4 °C 30.22in /  1023.2hPa WSW 3mph /  4.8km/h 7mph /  11.3km/h 93% 0.00in /  0mm 0 W/m2
17:10 36.3 °F /  2.4 °C 34.5 °F /  1.4 °C 30.22in /  1023.2hPa WSW 3mph /  4.8km/h 6mph /  9.7km/h 93% 0.00in /  0mm 0 W/m2
17:20 36.3 °F /  2.4 °C 34.5 °F /  1.4 °C 30.22in /  1023.2hPa West 2mph /  3.2km/h 4mph /  6.4km/h 93% 0.00in /  0mm 0 W/m2
17:30 36.3 °F /  2.4 °C 34.5 °F /  1.4 °C 30.22in /  1023.2hPa WSW 3mph /  4.8km/h 8mph /  12.9km/h 93% 0.00in /  0mm 0 W/m2
17:40 36.1 °F /  2.3 °C 33.8 °F /  1 °C 30.22in /  1023.2hPa WSW 6mph /  9.7km/h 10mph /  16.1km/h 91% 0.00in /  0mm 0 W/m2
17:50 36 °F /  2.2 °C 33.6 °F /  0.9 °C 30.22in /  1023.2hPa WSW 6mph /  9.7km/h 11mph /  17.7km/h 91% 0.00in /  0mm 0 W/m2
18:00 35.8 °F /  2.1 °C 33.4 °F /  0.8 °C 30.22in /  1023.2hPa WSW 7mph /  11.3km/h 10mph /  16.1km/h 91% 0.00in /  0mm 0 W/m2
18:10 35.8 °F /  2.1 °C 33.4 °F /  0.8 °C 30.23in /  1023.6hPa WSW 6mph /  9.7km/h 10mph /  16.1km/h 91% 0.00in /  0mm 0 W/m2
18:20 35.6 °F /  2 °C 33.8 °F /  1 °C 30.23in /  1023.6hPa WSW 5mph /  8km/h 11mph /  17.7km/h 93% 0.00in /  0mm 0 W/m2
18:30 35.6 °F /  2 °C 33.8 °F /  1 °C 30.23in /  1023.6hPa WSW 3mph /  4.8km/h 9mph /  14.5km/h 93% 0.00in /  0mm 0 W/m2
18:40 35.6 °F /  2 °C 33.8 °F /  1 °C 30.23in /  1023.6hPa West 3mph /  4.8km/h 7mph /  11.3km/h 93% 0.00in /  0mm 0 W/m2
18:50 35.6 °F /  2 °C 33.8 °F /  1 °C 30.23in /  1023.6hPa WSW 6mph /  9.7km/h 10mph /  16.1km/h 93% 0.00in /  0mm 0 W/m2
19:00 35.5 °F /  1.9 °C 33.7 °F /  0.9 °C 30.23in /  1023.6hPa WSW 3mph /  4.8km/h 10mph /  16.1km/h 93% 0.00in /  0mm 0 W/m2
19:10 35.4 °F /  1.9 °C 33.6 °F /  0.9 °C 30.23in /  1023.6hPa WSW 3mph /  4.8km/h 10mph /  16.1km/h 93% 0.00in /  0mm 0 W/m2
19:20 35.4 °F /  1.9 °C 33.6 °F /  0.9 °C 30.23in /  1023.6hPa WSW 3mph /  4.8km/h 7mph /  11.3km/h 93% 0.00in /  0mm 0 W/m2
19:30 35.4 °F /  1.9 °C 33.6 °F /  0.9 °C 30.23in /  1023.6hPa West 3mph /  4.8km/h 8mph /  12.9km/h 93% 0.00in /  0mm 0 W/m2
19:40 35.4 °F /  1.9 °C 33.9 °F /  1.1 °C 30.24in /  1023.9hPa WSW 2mph /  3.2km/h 5mph /  8km/h 94% 0.00in /  0mm 0 W/m2
19:50 35.4 °F /  1.9 °C 33.9 °F /  1.1 °C 30.23in /  1023.6hPa SW 1mph /  1.6km/h 3mph /  4.8km/h 94% 0.00in /  0mm 0 W/m2
20:00 35.4 °F /  1.9 °C 33.9 °F /  1.1 °C 30.23in /  1023.6hPa SW 2mph /  3.2km/h 3mph /  4.8km/h 94% 0.00in /  0mm 0 W/m2
20:10 35.4 °F /  1.9 °C 33.9 °F /  1.1 °C 30.24in /  1023.9hPa SW 2mph /  3.2km/h 5mph /  8km/h 94% 0.00in /  0mm 0 W/m2
20:20 35.4 °F /  1.9 °C 33.9 °F /  1.1 °C 30.24in /  1023.9hPa WSW 5mph /  8km/h 6mph /  9.7km/h 94% 0.00in /  0mm 0 W/m2
20:30 35.3 °F /  1.8 °C 33.8 °F /  1 °C 30.24in /  1023.9hPa SW 3mph /  4.8km/h 7mph /  11.3km/h 94% 0.00in /  0mm 0 W/m2
20:40 35.2 °F /  1.8 °C 33.7 °F /  0.9 °C 30.24in /  1023.9hPa SW 3mph /  4.8km/h 7mph /  11.3km/h 94% 0.00in /  0mm 0 W/m2
20:50 35.2 °F /  1.8 °C 33.6 °F /  0.9 °C 30.24in /  1023.9hPa SW 2mph /  3.2km/h 7mph /  11.3km/h 94% 0.00in /  0mm 0 W/m2
21:00 35.1 °F /  1.7 °C 33.5 °F /  0.8 °C 30.24in /  1023.9hPa SW 6mph /  9.7km/h 9mph /  14.5km/h 94% 0.00in /  0mm 0 W/m2
21:10 34.9 °F /  1.6 °C 33.3 °F /  0.7 °C 30.23in /  1023.6hPa SW 3mph /  4.8km/h 9mph /  14.5km/h 94% 0.00in /  0mm 0 W/m2
21:20 34.9 °F /  1.6 °C 33.3 °F /  0.7 °C 30.23in /  1023.6hPa SW 3mph /  4.8km/h 7mph /  11.3km/h 94% 0.00in /  0mm 0 W/m2
21:30 34.9 °F /  1.6 °C 33.3 °F /  0.7 °C 30.24in /  1023.9hPa SW 3mph /  4.8km/h 6mph /  9.7km/h 94% 0.00in /  0mm 0 W/m2
21:40 34.7 °F /  1.5 °C 33.2 °F /  0.7 °C 30.24in /  1023.9hPa WSW 3mph /  4.8km/h 6mph /  9.7km/h 94% 0.00in /  0mm 0 W/m2
21:50 34.7 °F /  1.5 °C 33.2 °F /  0.7 °C 30.24in /  1023.9hPa SW 3mph /  4.8km/h 7mph /  11.3km/h 94% 0.00in /  0mm 0 W/m2
22:00 34.7 °F /  1.5 °C 33.2 °F /  0.7 °C 30.24in /  1023.9hPa SW 1mph /  1.6km/h 5mph /  8km/h 94% 0.00in /  0mm 0 W/m2
22:10 34.5 °F /  1.4 °C 33 °F /  0.6 °C 30.25in /  1024.3hPa WSW 1mph /  1.6km/h 3mph /  4.8km/h 94% 0.00in /  0mm 0 W/m2
22:20 34.6 °F /  1.4 °C 33 °F /  0.6 °C 30.25in /  1024.3hPa WSW 5mph /  8km/h 7mph /  11.3km/h 94% 0.00in /  0mm 0 W/m2
22:30 34.6 °F /  1.4 °C 33 °F /  0.6 °C 30.25in /  1024.3hPa WSW 3mph /  4.8km/h 6mph /  9.7km/h 94% 0.00in /  0mm 0 W/m2
22:40 34.5 °F /  1.4 °C 33 °F /  0.6 °C 30.24in /  1023.9hPa SW 2mph /  3.2km/h 5mph /  8km/h 94% 0.00in /  0mm 0 W/m2
22:50 34.5 °F /  1.4 °C 33 °F /  0.6 °C 30.25in /  1024.3hPa SW 2mph /  3.2km/h 5mph /  8km/h 94% 0.00in /  0mm 0 W/m2
23:00 34.5 °F /  1.4 °C 33 °F /  0.6 °C 30.25in /  1024.3hPa SSW 1mph /  1.6km/h 4mph /  6.4km/h 94% 0.00in /  0mm 0 W/m2
23:10 34.3 °F /  1.3 °C 32.8 °F /  0.4 °C 30.25in /  1024.3hPa SSW 2mph /  3.2km/h 5mph /  8km/h 94% 0.00in /  0mm 0 W/m2
23:20 34.3 °F /  1.3 °C 32.8 °F /  0.4 °C 30.25in /  1024.3hPa WSW 2mph /  3.2km/h 4mph /  6.4km/h 94% 0.00in /  0mm 0 W/m2
23:30 34.3 °F /  1.3 °C 32.8 °F /  0.4 °C 30.25in /  1024.3hPa SW 2mph /  3.2km/h 4mph /  6.4km/h 94% 0.00in /  0mm 0 W/m2
23:40 34.3 °F /  1.3 °C 32.8 °F /  0.4 °C 30.25in /  1024.3hPa WSW 2mph /  3.2km/h 4mph /  6.4km/h 94% 0.00in /  0mm 0 W/m2
23:50 34.2 °F /  1.2 °C 32.6 °F /  0.3 °C 30.24in /  1023.9hPa SW 3mph /  4.8km/h 5mph /  8km/h 94% 0.00in /  0mm 0 W/m2
Knjazevac, Serbia
Compliments of Weather Underground - 2 mb